sensor_id;sensor_type;location;lat;lon;timestamp;P1;durP1;ratioP1;P2;durP2;ratioP2
11008;SDS011;5557;51.670;7.788;2023-08-01T00:01:37;1.67;;;1.17;;
11008;SDS011;5557;51.670;7.788;2023-08-01T00:04:04;1.33;;;1.23;;
11008;SDS011;5557;51.670;7.788;2023-08-01T00:06:31;1.40;;;1.30;;
11008;SDS011;5557;51.670;7.788;2023-08-01T00:08:58;1.27;;;1.17;;
11008;SDS011;5557;51.670;7.788;2023-08-01T00:11:25;1.63;;;1.37;;
11008;SDS011;5557;51.670;7.788;2023-08-01T00:13:52;1.27;;;1.13;;
11008;SDS011;5557;51.670;7.788;2023-08-01T00:16:20;3.67;;;1.50;;
11008;SDS011;5557;51.670;7.788;2023-08-01T00:18:47;1.07;;;0.97;;
11008;SDS011;5557;51.670;7.788;2023-08-01T00:21:14;1.40;;;1.30;;
11008;SDS011;5557;51.670;7.788;2023-08-01T00:23:41;1.40;;;1.30;;
11008;SDS011;5557;51.670;7.788;2023-08-01T00:26:08;1.90;;;1.37;;
11008;SDS011;5557;51.670;7.788;2023-08-01T00:28:35;3.47;;;1.37;;
11008;SDS011;5557;51.670;7.788;2023-08-01T00:31:05;1.33;;;1.23;;
11008;SDS011;5557;51.670;7.788;2023-08-01T00:33:35;3.00;;;1.10;;
11008;SDS011;5557;51.670;7.788;2023-08-01T00:36:03;1.67;;;1.07;;
11008;SDS011;5557;51.670;7.788;2023-08-01T00:38:36;1.10;;;1.00;;
11008;SDS011;5557;51.670;7.788;2023-08-01T00:41:03;1.17;;;1.07;;
11008;SDS011;5557;51.670;7.788;2023-08-01T00:43:30;3.53;;;1.00;;
11008;SDS011;5557;51.670;7.788;2023-08-01T00:45:58;1.07;;;0.97;;
11008;SDS011;5557;51.670;7.788;2023-08-01T00:48:28;2.60;;;1.20;;
11008;SDS011;5557;51.670;7.788;2023-08-01T00:51:05;1.27;;;1.03;;
11008;SDS011;5557;51.670;7.788;2023-08-01T00:53:34;1.83;;;1.10;;
11008;SDS011;5557;51.670;7.788;2023-08-01T00:56:02;1.30;;;0.90;;
11008;SDS011;5557;51.670;7.788;2023-08-01T00:58:30;1.10;;;1.00;;
11008;SDS011;5557;51.670;7.788;2023-08-01T01:00:57;0.90;;;0.80;;
11008;SDS011;5557;51.670;7.788;2023-08-01T01:03:26;0.90;;;0.80;;
11008;SDS011;5557;51.670;7.788;2023-08-01T01:09:01;0.90;;;0.80;;
11008;SDS011;5557;51.670;7.788;2023-08-01T01:11:31;0.93;;;0.83;;
11008;SDS011;5557;51.670;7.788;2023-08-01T01:13:58;1.10;;;1.00;;
11008;SDS011;5557;51.670;7.788;2023-08-01T01:16:25;1.00;;;0.90;;
11008;SDS011;5557;51.670;7.788;2023-08-01T01:18:52;1.13;;;0.80;;
11008;SDS011;5557;51.670;7.788;2023-08-01T01:21:19;1.07;;;0.97;;
11008;SDS011;5557;51.670;7.788;2023-08-01T01:23:46;1.37;;;1.27;;
11008;SDS011;5557;51.670;7.788;2023-08-01T01:26:15;1.20;;;1.10;;
11008;SDS011;5557;51.670;7.788;2023-08-01T01:28:47;1.47;;;1.13;;
11008;SDS011;5557;51.670;7.788;2023-08-01T01:31:16;1.10;;;0.90;;
11008;SDS011;5557;51.670;7.788;2023-08-01T01:33:44;1.53;;;1.43;;
11008;SDS011;5557;51.670;7.788;2023-08-01T01:36:12;2.37;;;1.00;;
11008;SDS011;5557;51.670;7.788;2023-08-01T01:38:39;1.47;;;1.37;;
11008;SDS011;5557;51.670;7.788;2023-08-01T01:41:06;1.40;;;1.30;;
11008;SDS011;5557;51.670;7.788;2023-08-01T01:43:33;1.10;;;1.00;;
11008;SDS011;5557;51.670;7.788;2023-08-01T01:46:00;1.10;;;1.00;;
11008;SDS011;5557;51.670;7.788;2023-08-01T01:48:27;5.13;;;0.80;;
11008;SDS011;5557;51.670;7.788;2023-08-01T01:50:54;7.70;;;0.90;;
11008;SDS011;5557;51.670;7.788;2023-08-01T01:53:21;0.90;;;0.80;;
11008;SDS011;5557;51.670;7.788;2023-08-01T01:55:48;1.17;;;1.03;;
11008;SDS011;5557;51.670;7.788;2023-08-01T01:58:15;1.30;;;1.20;;
11008;SDS011;5557;51.670;7.788;2023-08-01T02:00:42;1.10;;;0.90;;
11008;SDS011;5557;51.670;7.788;2023-08-01T02:03:09;1.60;;;1.00;;
11008;SDS011;5557;51.670;7.788;2023-08-01T02:05:36;1.13;;;1.03;;
11008;SDS011;5557;51.670;7.788;2023-08-01T02:08:04;1.27;;;1.17;;
11008;SDS011;5557;51.670;7.788;2023-08-01T02:10:31;1.10;;;1.00;;
11008;SDS011;5557;51.670;7.788;2023-08-01T02:12:58;1.33;;;1.10;;
11008;SDS011;5557;51.670;7.788;2023-08-01T02:15:25;1.40;;;1.30;;
11008;SDS011;5557;51.670;7.788;2023-08-01T02:17:52;1.27;;;1.17;;
11008;SDS011;5557;51.670;7.788;2023-08-01T02:20:19;1.20;;;1.10;;
11008;SDS011;5557;51.670;7.788;2023-08-01T02:22:46;3.30;;;1.27;;
11008;SDS011;5557;51.670;7.788;2023-08-01T02:25:13;1.40;;;1.30;;
11008;SDS011;5557;51.670;7.788;2023-08-01T02:27:40;1.20;;;1.10;;
11008;SDS011;5557;51.670;7.788;2023-08-01T02:30:08;3.40;;;1.57;;
11008;SDS011;5557;51.670;7.788;2023-08-01T02:32:36;3.13;;;1.33;;
11008;SDS011;5557;51.670;7.788;2023-08-01T02:35:04;1.90;;;1.80;;
11008;SDS011;5557;51.670;7.788;2023-08-01T02:37:31;6.70;;;2.83;;
11008;SDS011;5557;51.670;7.788;2023-08-01T02:39:58;4.13;;;3.57;;
11008;SDS011;5557;51.670;7.788;2023-08-01T02:42:25;5.90;;;5.17;;
11008;SDS011;5557;51.670;7.788;2023-08-01T02:44:53;7.23;;;6.50;;
11008;SDS011;5557;51.670;7.788;2023-08-01T02:47:20;8.43;;;7.10;;
11008;SDS011;5557;51.670;7.788;2023-08-01T02:49:47;8.47;;;7.57;;
11008;SDS011;5557;51.670;7.788;2023-08-01T02:52:14;9.73;;;8.27;;
11008;SDS011;5557;51.670;7.788;2023-08-01T02:54:41;9.50;;;7.77;;
11008;SDS011;5557;51.670;7.788;2023-08-01T02:57:08;7.23;;;6.63;;
11008;SDS011;5557;51.670;7.788;2023-08-01T02:59:35;11.40;;;8.03;;
11008;SDS011;5557;51.670;7.788;2023-08-01T03:02:02;8.30;;;6.77;;
11008;SDS011;5557;51.670;7.788;2023-08-01T03:04:29;8.13;;;6.73;;
11008;SDS011;5557;51.670;7.788;2023-08-01T03:07:11;9.57;;;6.90;;
11008;SDS011;5557;51.670;7.788;2023-08-01T03:09:38;6.80;;;6.10;;
11008;SDS011;5557;51.670;7.788;2023-08-01T03:12:05;6.47;;;5.87;;
11008;SDS011;5557;51.670;7.788;2023-08-01T03:14:33;7.40;;;6.20;;
11008;SDS011;5557;51.670;7.788;2023-08-01T03:17:00;5.80;;;5.30;;
11008;SDS011;5557;51.670;7.788;2023-08-01T03:19:27;5.57;;;5.17;;
11008;SDS011;5557;51.670;7.788;2023-08-01T03:21:55;9.17;;;5.93;;
11008;SDS011;5557;51.670;7.788;2023-08-01T03:24:22;6.03;;;5.53;;
11008;SDS011;5557;51.670;7.788;2023-08-01T03:26:49;9.97;;;6.40;;
11008;SDS011;5557;51.670;7.788;2023-08-01T03:29:16;6.57;;;5.97;;
11008;SDS011;5557;51.670;7.788;2023-08-01T03:31:43;7.33;;;6.70;;
11008;SDS011;5557;51.670;7.788;2023-08-01T03:34:10;8.20;;;7.40;;
11008;SDS011;5557;51.670;7.788;2023-08-01T03:36:39;11.23;;;7.07;;
11008;SDS011;5557;51.670;7.788;2023-08-01T03:39:07;8.03;;;7.33;;
11008;SDS011;5557;51.670;7.788;2023-08-01T03:41:36;9.00;;;8.10;;
11008;SDS011;5557;51.670;7.788;2023-08-01T03:44:04;9.03;;;8.13;;
11008;SDS011;5557;51.670;7.788;2023-08-01T03:46:31;11.67;;;10.07;;
11008;SDS011;5557;51.670;7.788;2023-08-01T03:48:58;15.20;;;10.20;;
11008;SDS011;5557;51.670;7.788;2023-08-01T03:51:25;17.40;;;11.30;;
11008;SDS011;5557;51.670;7.788;2023-08-01T03:53:52;18.60;;;10.77;;
11008;SDS011;5557;51.670;7.788;2023-08-01T03:56:37;18.33;;;12.83;;
11008;SDS011;5557;51.670;7.788;2023-08-01T03:59:06;21.50;;;13.20;;
11008;SDS011;5557;51.670;7.788;2023-08-01T04:01:33;17.73;;;13.00;;
11008;SDS011;5557;51.670;7.788;2023-08-01T04:04:00;22.93;;;14.37;;
11008;SDS011;5557;51.670;7.788;2023-08-01T04:06:27;19.00;;;14.60;;
11008;SDS011;5557;51.670;7.788;2023-08-01T04:08:54;16.77;;;12.83;;
11008;SDS011;5557;51.670;7.788;2023-08-01T04:11:23;17.97;;;14.10;;
11008;SDS011;5557;51.670;7.788;2023-08-01T04:13:50;21.57;;;12.87;;
11008;SDS011;5557;51.670;7.788;2023-08-01T04:16:17;22.83;;;13.63;;
11008;SDS011;5557;51.670;7.788;2023-08-01T04:18:44;27.27;;;14.97;;
11008;SDS011;5557;51.670;7.788;2023-08-01T04:21:12;20.17;;;14.87;;
11008;SDS011;5557;51.670;7.788;2023-08-01T04:23:40;20.73;;;14.07;;
11008;SDS011;5557;51.670;7.788;2023-08-01T04:26:08;23.17;;;14.67;;
11008;SDS011;5557;51.670;7.788;2023-08-01T04:28:35;20.10;;;15.47;;
11008;SDS011;5557;51.670;7.788;2023-08-01T04:31:02;20.77;;;13.73;;
11008;SDS011;5557;51.670;7.788;2023-08-01T04:33:30;17.23;;;14.87;;
11008;SDS011;5557;51.670;7.788;2023-08-01T04:35:57;18.00;;;15.10;;
11008;SDS011;5557;51.670;7.788;2023-08-01T04:38:26;26.33;;;15.47;;
11008;SDS011;5557;51.670;7.788;2023-08-01T04:40:53;24.50;;;16.40;;
11008;SDS011;5557;51.670;7.788;2023-08-01T04:43:20;20.70;;;15.47;;
11008;SDS011;5557;51.670;7.788;2023-08-01T04:45:47;18.50;;;14.40;;
11008;SDS011;5557;51.670;7.788;2023-08-01T04:48:14;20.17;;;14.87;;
11008;SDS011;5557;51.670;7.788;2023-08-01T04:50:41;23.90;;;15.27;;
11008;SDS011;5557;51.670;7.788;2023-08-01T04:53:08;21.23;;;17.10;;
11008;SDS011;5557;51.670;7.788;2023-08-01T04:55:35;21.00;;;16.20;;
11008;SDS011;5557;51.670;7.788;2023-08-01T04:58:02;24.83;;;16.20;;
11008;SDS011;5557;51.670;7.788;2023-08-01T05:00:29;22.97;;;17.17;;
11008;SDS011;5557;51.670;7.788;2023-08-01T05:02:56;18.63;;;13.90;;
11008;SDS011;5557;51.670;7.788;2023-08-01T05:05:23;16.23;;;13.43;;
11008;SDS011;5557;51.670;7.788;2023-08-01T05:07:50;22.20;;;14.03;;
11008;SDS011;5557;51.670;7.788;2023-08-01T05:10:17;21.33;;;12.60;;
11008;SDS011;5557;51.670;7.788;2023-08-01T05:12:44;17.60;;;12.83;;
11008;SDS011;5557;51.670;7.788;2023-08-01T05:15:11;20.80;;;12.70;;
11008;SDS011;5557;51.670;7.788;2023-08-01T05:17:39;16.07;;;11.43;;
11008;SDS011;5557;51.670;7.788;2023-08-01T05:20:06;14.73;;;11.60;;
11008;SDS011;5557;51.670;7.788;2023-08-01T05:22:34;13.23;;;11.10;;
11008;SDS011;5557;51.670;7.788;2023-08-01T05:25:01;13.63;;;11.00;;
11008;SDS011;5557;51.670;7.788;2023-08-01T05:27:30;14.30;;;11.50;;
11008;SDS011;5557;51.670;7.788;2023-08-01T05:29:57;22.63;;;11.40;;
11008;SDS011;5557;51.670;7.788;2023-08-01T05:32:24;19.67;;;12.77;;
11008;SDS011;5557;51.670;7.788;2023-08-01T05:34:52;20.23;;;11.87;;
11008;SDS011;5557;51.670;7.788;2023-08-01T05:37:22;20.90;;;9.60;;
11008;SDS011;5557;51.670;7.788;2023-08-01T05:39:49;22.83;;;12.10;;
11008;SDS011;5557;51.670;7.788;2023-08-01T05:42:16;17.17;;;11.97;;
11008;SDS011;5557;51.670;7.788;2023-08-01T05:44:43;14.40;;;12.57;;
11008;SDS011;5557;51.670;7.788;2023-08-01T05:47:10;30.03;;;15.27;;
11008;SDS011;5557;51.670;7.788;2023-08-01T05:49:37;33.10;;;17.13;;
11008;SDS011;5557;51.670;7.788;2023-08-01T05:52:04;26.63;;;17.77;;
11008;SDS011;5557;51.670;7.788;2023-08-01T05:54:32;25.33;;;17.37;;
11008;SDS011;5557;51.670;7.788;2023-08-01T05:56:59;34.57;;;18.97;;
11008;SDS011;5557;51.670;7.788;2023-08-01T05:59:26;37.00;;;21.40;;
11008;SDS011;5557;51.670;7.788;2023-08-01T06:01:53;31.13;;;20.30;;
11008;SDS011;5557;51.670;7.788;2023-08-01T06:04:20;29.63;;;20.87;;
11008;SDS011;5557;51.670;7.788;2023-08-01T06:06:47;28.40;;;19.43;;
11008;SDS011;5557;51.670;7.788;2023-08-01T06:09:14;29.53;;;20.27;;
11008;SDS011;5557;51.670;7.788;2023-08-01T06:11:41;39.13;;;21.20;;
11008;SDS011;5557;51.670;7.788;2023-08-01T06:14:09;35.80;;;21.00;;
11008;SDS011;5557;51.670;7.788;2023-08-01T06:16:36;33.73;;;18.37;;
11008;SDS011;5557;51.670;7.788;2023-08-01T06:19:04;34.33;;;19.03;;
11008;SDS011;5557;51.670;7.788;2023-08-01T06:21:30;21.23;;;17.80;;
11008;SDS011;5557;51.670;7.788;2023-08-01T06:23:58;28.00;;;17.30;;
11008;SDS011;5557;51.670;7.788;2023-08-01T06:26:25;33.27;;;19.00;;
11008;SDS011;5557;51.670;7.788;2023-08-01T06:28:54;27.10;;;18.10;;
11008;SDS011;5557;51.670;7.788;2023-08-01T06:31:21;30.90;;;18.33;;
11008;SDS011;5557;51.670;7.788;2023-08-01T06:33:49;31.77;;;17.20;;
11008;SDS011;5557;51.670;7.788;2023-08-01T06:36:16;36.30;;;18.20;;
11008;SDS011;5557;51.670;7.788;2023-08-01T06:38:44;24.67;;;16.10;;
11008;SDS011;5557;51.670;7.788;2023-08-01T06:41:11;23.07;;;15.53;;
11008;SDS011;5557;51.670;7.788;2023-08-01T06:43:38;24.80;;;15.50;;
11008;SDS011;5557;51.670;7.788;2023-08-01T06:46:05;24.87;;;14.40;;
11008;SDS011;5557;51.670;7.788;2023-08-01T06:48:32;24.00;;;15.90;;
11008;SDS011;5557;51.670;7.788;2023-08-01T06:51:02;24.03;;;13.20;;
11008;SDS011;5557;51.670;7.788;2023-08-01T06:53:29;19.17;;;15.77;;
11008;SDS011;5557;51.670;7.788;2023-08-01T06:55:56;23.37;;;15.23;;
11008;SDS011;5557;51.670;7.788;2023-08-01T06:58:23;28.93;;;16.97;;
11008;SDS011;5557;51.670;7.788;2023-08-01T07:00:50;24.57;;;16.13;;
11008;SDS011;5557;51.670;7.788;2023-08-01T07:03:17;25.77;;;16.67;;
11008;SDS011;5557;51.670;7.788;2023-08-01T07:05:45;22.57;;;17.07;;
11008;SDS011;5557;51.670;7.788;2023-08-01T07:08:12;23.80;;;18.77;;
11008;SDS011;5557;51.670;7.788;2023-08-01T07:10:39;31.23;;;19.67;;
11008;SDS011;5557;51.670;7.788;2023-08-01T07:13:06;27.33;;;19.70;;
11008;SDS011;5557;51.670;7.788;2023-08-01T07:15:33;30.27;;;20.03;;
11008;SDS011;5557;51.670;7.788;2023-08-01T07:18:00;23.77;;;19.73;;
11008;SDS011;5557;51.670;7.788;2023-08-01T07:20:27;26.73;;;19.40;;
11008;SDS011;5557;51.670;7.788;2023-08-01T07:22:54;30.57;;;20.70;;
11008;SDS011;5557;51.670;7.788;2023-08-01T07:25:21;25.70;;;19.33;;
11008;SDS011;5557;51.670;7.788;2023-08-01T07:27:48;26.43;;;19.87;;
11008;SDS011;5557;51.670;7.788;2023-08-01T07:30:16;28.20;;;19.83;;
11008;SDS011;5557;51.670;7.788;2023-08-01T07:32:43;27.73;;;20.40;;
11008;SDS011;5557;51.670;7.788;2023-08-01T07:35:11;27.07;;;21.47;;
11008;SDS011;5557;51.670;7.788;2023-08-01T07:37:40;29.37;;;20.97;;
11008;SDS011;5557;51.670;7.788;2023-08-01T07:40:07;35.43;;;19.27;;
11008;SDS011;5557;51.670;7.788;2023-08-01T07:42:35;30.07;;;20.40;;
11008;SDS011;5557;51.670;7.788;2023-08-01T07:45:02;34.10;;;18.93;;
11008;SDS011;5557;51.670;7.788;2023-08-01T07:47:30;29.10;;;18.53;;
11008;SDS011;5557;51.670;7.788;2023-08-01T07:49:57;22.50;;;17.03;;
11008;SDS011;5557;51.670;7.788;2023-08-01T07:52:24;21.37;;;17.83;;
11008;SDS011;5557;51.670;7.788;2023-08-01T07:54:52;23.20;;;17.03;;
11008;SDS011;5557;51.670;7.788;2023-08-01T07:57:20;26.83;;;15.80;;
11008;SDS011;5557;51.670;7.788;2023-08-01T07:59:47;26.20;;;16.10;;
11008;SDS011;5557;51.670;7.788;2023-08-01T08:02:14;26.63;;;16.47;;
11008;SDS011;5557;51.670;7.788;2023-08-01T08:04:41;23.00;;;14.57;;
11008;SDS011;5557;51.670;7.788;2023-08-01T08:07:08;22.40;;;14.10;;
11008;SDS011;5557;51.670;7.788;2023-08-01T08:09:35;17.33;;;11.87;;
11008;SDS011;5557;51.670;7.788;2023-08-01T08:12:02;23.27;;;11.30;;
11008;SDS011;5557;51.670;7.788;2023-08-01T08:14:30;12.87;;;10.83;;
11008;SDS011;5557;51.670;7.788;2023-08-01T08:16:57;13.53;;;10.13;;
11008;SDS011;5557;51.670;7.788;2023-08-01T08:19:24;14.17;;;8.90;;
11008;SDS011;5557;51.670;7.788;2023-08-01T08:21:52;12.03;;;9.80;;
11008;SDS011;5557;51.670;7.788;2023-08-01T08:24:19;10.93;;;8.73;;
11008;SDS011;5557;51.670;7.788;2023-08-01T08:26:46;14.30;;;9.03;;
11008;SDS011;5557;51.670;7.788;2023-08-01T08:29:13;10.33;;;9.17;;
11008;SDS011;5557;51.670;7.788;2023-08-01T08:31:40;11.70;;;8.97;;
11008;SDS011;5557;51.670;7.788;2023-08-01T08:34:08;15.27;;;10.27;;
11008;SDS011;5557;51.670;7.788;2023-08-01T08:36:35;8.80;;;8.07;;
11008;SDS011;5557;51.670;7.788;2023-08-01T08:39:03;9.93;;;8.83;;
11008;SDS011;5557;51.670;7.788;2023-08-01T08:41:33;13.93;;;10.27;;
11008;SDS011;5557;51.670;7.788;2023-08-01T08:44:06;11.20;;;8.83;;
11008;SDS011;5557;51.670;7.788;2023-08-01T08:46:37;13.10;;;8.70;;
11008;SDS011;5557;51.670;7.788;2023-08-01T08:49:09;15.80;;;9.33;;
11008;SDS011;5557;51.670;7.788;2023-08-01T08:51:37;9.50;;;8.63;;
11008;SDS011;5557;51.670;7.788;2023-08-01T08:54:05;10.60;;;8.50;;
11008;SDS011;5557;51.670;7.788;2023-08-01T08:56:33;11.10;;;9.37;;
11008;SDS011;5557;51.670;7.788;2023-08-01T08:59:01;13.17;;;9.50;;
11008;SDS011;5557;51.670;7.788;2023-08-01T09:01:28;9.83;;;8.27;;
11008;SDS011;5557;51.670;7.788;2023-08-01T09:03:57;15.10;;;9.30;;
11008;SDS011;5557;51.670;7.788;2023-08-01T09:06:24;11.13;;;7.40;;
11008;SDS011;5557;51.670;7.788;2023-08-01T09:09:05;13.23;;;8.53;;
11008;SDS011;5557;51.670;7.788;2023-08-01T09:11:40;7.73;;;6.93;;
11008;SDS011;5557;51.670;7.788;2023-08-01T09:14:10;19.13;;;7.47;;
11008;SDS011;5557;51.670;7.788;2023-08-01T09:16:39;6.60;;;6.10;;
11008;SDS011;5557;51.670;7.788;2023-08-01T09:19:07;15.13;;;7.50;;
11008;SDS011;5557;51.670;7.788;2023-08-01T09:21:36;8.77;;;7.87;;
11008;SDS011;5557;51.670;7.788;2023-08-01T09:24:08;20.90;;;8.37;;
11008;SDS011;5557;51.670;7.788;2023-08-01T09:26:39;7.87;;;6.43;;
11008;SDS011;5557;51.670;7.788;2023-08-01T09:29:09;15.83;;;5.97;;
11008;SDS011;5557;51.670;7.788;2023-08-01T09:31:37;8.57;;;5.80;;
11008;SDS011;5557;51.670;7.788;2023-08-01T09:34:18;5.37;;;4.57;;
11008;SDS011;5557;51.670;7.788;2023-08-01T09:36:51;6.60;;;5.00;;
11008;SDS011;5557;51.670;7.788;2023-08-01T09:39:24;8.17;;;5.53;;
11008;SDS011;5557;51.670;7.788;2023-08-01T09:41:59;6.60;;;4.53;;
11008;SDS011;5557;51.670;7.788;2023-08-01T09:44:28;8.20;;;4.90;;
11008;SDS011;5557;51.670;7.788;2023-08-01T09:49:24;11.37;;;5.43;;
11008;SDS011;5557;51.670;7.788;2023-08-01T09:51:51;6.63;;;5.00;;
11008;SDS011;5557;51.670;7.788;2023-08-01T09:54:18;5.77;;;4.90;;
11008;SDS011;5557;51.670;7.788;2023-08-01T09:56:47;5.83;;;4.67;;
11008;SDS011;5557;51.670;7.788;2023-08-01T09:59:20;7.00;;;4.20;;
11008;SDS011;5557;51.670;7.788;2023-08-01T10:01:49;3.87;;;3.60;;
11008;SDS011;5557;51.670;7.788;2023-08-01T10:04:22;8.50;;;4.20;;
11008;SDS011;5557;51.670;7.788;2023-08-01T10:06:54;8.80;;;3.90;;
11008;SDS011;5557;51.670;7.788;2023-08-01T10:09:25;4.87;;;3.93;;
11008;SDS011;5557;51.670;7.788;2023-08-01T10:11:52;6.90;;;3.70;;
11008;SDS011;5557;51.670;7.788;2023-08-01T10:14:23;6.30;;;4.67;;
11008;SDS011;5557;51.670;7.788;2023-08-01T10:16:51;9.50;;;4.70;;
11008;SDS011;5557;51.670;7.788;2023-08-01T10:19:20;6.30;;;4.50;;
11008;SDS011;5557;51.670;7.788;2023-08-01T10:21:47;4.77;;;4.30;;
11008;SDS011;5557;51.670;7.788;2023-08-01T10:24:17;4.50;;;4.20;;
11008;SDS011;5557;51.670;7.788;2023-08-01T10:26:45;9.73;;;4.10;;
11008;SDS011;5557;51.670;7.788;2023-08-01T10:29:13;8.87;;;3.97;;
11008;SDS011;5557;51.670;7.788;2023-08-01T10:31:50;5.33;;;4.50;;
11008;SDS011;5557;51.670;7.788;2023-08-01T10:34:21;3.90;;;3.50;;
11008;SDS011;5557;51.670;7.788;2023-08-01T10:36:57;4.20;;;3.70;;
11008;SDS011;5557;51.670;7.788;2023-08-01T10:39:28;12.43;;;4.77;;
11008;SDS011;5557;51.670;7.788;2023-08-01T10:42:01;6.50;;;4.10;;
11008;SDS011;5557;51.670;7.788;2023-08-01T10:44:31;6.13;;;4.00;;
11008;SDS011;5557;51.670;7.788;2023-08-01T10:47:01;5.20;;;4.00;;
11008;SDS011;5557;51.670;7.788;2023-08-01T10:49:42;7.53;;;4.47;;
11008;SDS011;5557;51.670;7.788;2023-08-01T10:52:20;4.80;;;4.50;;
11008;SDS011;5557;51.670;7.788;2023-08-01T10:55:03;6.47;;;4.10;;
11008;SDS011;5557;51.670;7.788;2023-08-01T10:57:35;6.90;;;4.07;;
11008;SDS011;5557;51.670;7.788;2023-08-01T11:00:03;4.10;;;3.80;;
11008;SDS011;5557;51.670;7.788;2023-08-01T11:02:36;4.17;;;3.87;;
11008;SDS011;5557;51.670;7.788;2023-08-01T11:05:04;7.70;;;4.07;;
11008;SDS011;5557;51.670;7.788;2023-08-01T11:07:34;5.03;;;3.00;;
11008;SDS011;5557;51.670;7.788;2023-08-01T11:10:05;11.23;;;3.43;;
11008;SDS011;5557;51.670;7.788;2023-08-01T11:12:36;5.30;;;2.70;;
11008;SDS011;5557;51.670;7.788;2023-08-01T11:15:09;5.40;;;3.10;;
11008;SDS011;5557;51.670;7.788;2023-08-01T11:17:38;2.30;;;2.10;;
11008;SDS011;5557;51.670;7.788;2023-08-01T11:20:07;2.73;;;2.43;;
11008;SDS011;5557;51.670;7.788;2023-08-01T11:22:36;2.70;;;2.50;;
11008;SDS011;5557;51.670;7.788;2023-08-01T11:25:04;7.10;;;3.20;;
11008;SDS011;5557;51.670;7.788;2023-08-01T11:27:32;3.57;;;3.20;;
11008;SDS011;5557;51.670;7.788;2023-08-01T11:30:00;6.90;;;3.03;;
11008;SDS011;5557;51.670;7.788;2023-08-01T11:32:35;5.20;;;3.30;;
11008;SDS011;5557;51.670;7.788;2023-08-01T11:35:03;3.00;;;2.80;;
11008;SDS011;5557;51.670;7.788;2023-08-01T11:37:31;3.10;;;2.63;;
11008;SDS011;5557;51.670;7.788;2023-08-01T11:39:59;1.63;;;1.53;;
11008;SDS011;5557;51.670;7.788;2023-08-01T11:42:30;3.10;;;1.90;;
11008;SDS011;5557;51.670;7.788;2023-08-01T11:45:07;1.93;;;1.20;;
11008;SDS011;5557;51.670;7.788;2023-08-01T11:47:36;3.30;;;2.00;;
11008;SDS011;5557;51.670;7.788;2023-08-01T11:50:03;3.10;;;1.70;;
11008;SDS011;5557;51.670;7.788;2023-08-01T11:52:32;3.17;;;2.03;;
11008;SDS011;5557;51.670;7.788;2023-08-01T11:54:59;3.43;;;2.40;;
11008;SDS011;5557;51.670;7.788;2023-08-01T11:57:26;8.00;;;2.33;;
11008;SDS011;5557;51.670;7.788;2023-08-01T11:59:54;5.23;;;2.27;;
11008;SDS011;5557;51.670;7.788;2023-08-01T12:02:25;3.50;;;2.40;;
11008;SDS011;5557;51.670;7.788;2023-08-01T12:04:58;3.00;;;2.27;;
11008;SDS011;5557;51.670;7.788;2023-08-01T12:07:26;3.63;;;2.00;;
11008;SDS011;5557;51.670;7.788;2023-08-01T12:09:59;5.40;;;2.17;;
11008;SDS011;5557;51.670;7.788;2023-08-01T12:12:28;3.73;;;2.07;;
11008;SDS011;5557;51.670;7.788;2023-08-01T12:14:55;2.50;;;2.30;;
11008;SDS011;5557;51.670;7.788;2023-08-01T12:17:23;9.50;;;2.63;;
11008;SDS011;5557;51.670;7.788;2023-08-01T12:19:50;2.80;;;2.27;;
11008;SDS011;5557;51.670;7.788;2023-08-01T12:22:17;6.07;;;2.70;;
11008;SDS011;5557;51.670;7.788;2023-08-01T12:24:44;2.50;;;2.40;;
11008;SDS011;5557;51.670;7.788;2023-08-01T12:27:11;4.37;;;2.10;;
11008;SDS011;5557;51.670;7.788;2023-08-01T12:29:38;3.13;;;2.33;;
11008;SDS011;5557;51.670;7.788;2023-08-01T12:32:06;2.93;;;2.17;;
11008;SDS011;5557;51.670;7.788;2023-08-01T12:34:33;2.33;;;2.13;;
11008;SDS011;5557;51.670;7.788;2023-08-01T12:37:01;4.60;;;2.63;;
11008;SDS011;5557;51.670;7.788;2023-08-01T12:39:29;13.00;;;3.77;;
11008;SDS011;5557;51.670;7.788;2023-08-01T12:41:56;2.70;;;2.50;;
11008;SDS011;5557;51.670;7.788;2023-08-01T12:44:23;4.20;;;2.83;;
11008;SDS011;5557;51.670;7.788;2023-08-01T12:46:50;3.00;;;2.63;;
11008;SDS011;5557;51.670;7.788;2023-08-01T12:49:18;4.13;;;2.23;;
11008;SDS011;5557;51.670;7.788;2023-08-01T12:51:45;3.03;;;1.90;;
11008;SDS011;5557;51.670;7.788;2023-08-01T12:54:16;2.33;;;2.00;;
11008;SDS011;5557;51.670;7.788;2023-08-01T12:56:43;2.70;;;1.83;;
11008;SDS011;5557;51.670;7.788;2023-08-01T12:59:10;4.70;;;2.60;;
11008;SDS011;5557;51.670;7.788;2023-08-01T13:01:37;3.30;;;1.70;;
11008;SDS011;5557;51.670;7.788;2023-08-01T13:04:04;6.70;;;1.97;;
11008;SDS011;5557;51.670;7.788;2023-08-01T13:06:34;4.57;;;1.63;;
11008;SDS011;5557;51.670;7.788;2023-08-01T13:09:02;6.50;;;1.70;;
11008;SDS011;5557;51.670;7.788;2023-08-01T13:11:29;1.40;;;1.30;;
11008;SDS011;5557;51.670;7.788;2023-08-01T13:13:56;3.30;;;1.47;;
11008;SDS011;5557;51.670;7.788;2023-08-01T13:16:23;6.60;;;2.03;;
11008;SDS011;5557;51.670;7.788;2023-08-01T13:18:51;3.80;;;1.57;;
11008;SDS011;5557;51.670;7.788;2023-08-01T13:21:18;2.33;;;1.80;;
11008;SDS011;5557;51.670;7.788;2023-08-01T13:23:45;6.27;;;2.03;;
11008;SDS011;5557;51.670;7.788;2023-08-01T13:26:12;3.00;;;1.57;;
11008;SDS011;5557;51.670;7.788;2023-08-01T13:28:39;3.10;;;1.67;;
11008;SDS011;5557;51.670;7.788;2023-08-01T13:31:06;2.70;;;1.83;;
11008;SDS011;5557;51.670;7.788;2023-08-01T13:33:33;2.87;;;1.90;;
11008;SDS011;5557;51.670;7.788;2023-08-01T13:36:01;4.70;;;2.00;;
11008;SDS011;5557;51.670;7.788;2023-08-01T13:38:29;3.40;;;1.77;;
11008;SDS011;5557;51.670;7.788;2023-08-01T13:40:59;2.13;;;1.47;;
11008;SDS011;5557;51.670;7.788;2023-08-01T13:43:28;4.67;;;2.17;;
11008;SDS011;5557;51.670;7.788;2023-08-01T13:45:55;6.50;;;1.90;;
11008;SDS011;5557;51.670;7.788;2023-08-01T13:48:22;4.70;;;1.80;;
11008;SDS011;5557;51.670;7.788;2023-08-01T13:50:50;2.33;;;1.60;;
11008;SDS011;5557;51.670;7.788;2023-08-01T13:53:17;6.30;;;2.17;;
11008;SDS011;5557;51.670;7.788;2023-08-01T13:55:45;4.60;;;1.60;;
11008;SDS011;5557;51.670;7.788;2023-08-01T13:58:12;4.73;;;1.97;;
11008;SDS011;5557;51.670;7.788;2023-08-01T14:00:39;6.30;;;1.80;;
11008;SDS011;5557;51.670;7.788;2023-08-01T14:03:06;5.30;;;2.10;;
11008;SDS011;5557;51.670;7.788;2023-08-01T14:05:35;3.03;;;2.20;;
11008;SDS011;5557;51.670;7.788;2023-08-01T14:08:02;7.37;;;2.77;;
11008;SDS011;5557;51.670;7.788;2023-08-01T14:10:29;7.33;;;2.30;;
11008;SDS011;5557;51.670;7.788;2023-08-01T14:12:56;4.87;;;2.30;;
11008;SDS011;5557;51.670;7.788;2023-08-01T14:15:23;4.60;;;2.70;;
11008;SDS011;5557;51.670;7.788;2023-08-01T14:17:51;3.00;;;1.90;;
11008;SDS011;5557;51.670;7.788;2023-08-01T14:20:19;6.90;;;2.73;;
11008;SDS011;5557;51.670;7.788;2023-08-01T14:22:46;6.63;;;2.47;;
11008;SDS011;5557;51.670;7.788;2023-08-01T14:25:13;4.90;;;2.33;;
11008;SDS011;5557;51.670;7.788;2023-08-01T14:27:40;5.53;;;2.60;;
11008;SDS011;5557;51.670;7.788;2023-08-01T14:30:07;2.37;;;1.97;;
11008;SDS011;5557;51.670;7.788;2023-08-01T14:32:38;6.77;;;2.23;;
11008;SDS011;5557;51.670;7.788;2023-08-01T14:35:06;2.93;;;2.07;;
11008;SDS011;5557;51.670;7.788;2023-08-01T14:37:34;2.77;;;2.00;;
11008;SDS011;5557;51.670;7.788;2023-08-01T14:40:01;3.40;;;2.90;;
11008;SDS011;5557;51.670;7.788;2023-08-01T14:42:30;3.70;;;2.10;;
11008;SDS011;5557;51.670;7.788;2023-08-01T14:44:57;3.03;;;1.80;;
11008;SDS011;5557;51.670;7.788;2023-08-01T14:47:24;1.90;;;1.50;;
11008;SDS011;5557;51.670;7.788;2023-08-01T14:49:51;6.73;;;1.33;;
11008;SDS011;5557;51.670;7.788;2023-08-01T14:52:18;3.17;;;1.40;;
11008;SDS011;5557;51.670;7.788;2023-08-01T14:54:51;8.03;;;1.20;;
11008;SDS011;5557;51.670;7.788;2023-08-01T14:57:18;1.67;;;1.20;;
11008;SDS011;5557;51.670;7.788;2023-08-01T14:59:45;7.83;;;2.00;;
11008;SDS011;5557;51.670;7.788;2023-08-01T15:02:12;4.07;;;1.60;;
11008;SDS011;5557;51.670;7.788;2023-08-01T15:04:39;4.20;;;1.50;;